Time;durP1;ratioP1;P1;durP2;ratioP2;P2;SDS_P1;SDS_P2;PMS_P1;PMS_P2;Temp;Humidity;BMP_temperature;BMP_pressure;BME280_temperature;BME280_humidity;BME280_pressure;Samples;Min_cycle;Max_cycle;Signal;HPM_P1;HPM_P2
2022/04/25 00:01:54;;;;;;;5.95;4.70;;;;;;;9.70;71.99;101142.34;5031812;28;20223;-79
2022/04/25 00:04:20;;;;;;;4.82;4.43;;;;;;;9.68;71.90;101134.56;5063054;28;20446;-79
2022/04/25 00:06:45;;;;;;;6.10;4.60;;;;;;;9.68;71.67;101129.31;5051882;28;20070;-79
2022/04/25 00:09:11;;;;;;;6.03;4.55;;;;;;;9.65;71.80;101137.25;5076682;28;20036;-79
2022/04/25 00:11:36;;;;;;;9.27;4.60;;;;;;;9.66;71.71;101130.25;5078960;28;20104;-79
2022/04/25 00:14:01;;;;;;;10.05;5.10;;;;;;;9.56;72.09;101132.31;5062394;28;20104;-79
2022/04/25 00:16:27;;;;;;;8.57;5.55;;;;;;;9.51;72.35;101131.59;5061889;28;20063;-79
2022/04/25 00:18:52;;;;;;;7.20;5.10;;;;;;;9.50;72.32;101137.75;5044058;28;20071;-79
2022/04/25 00:21:18;;;;;;;8.13;5.53;;;;;;;9.46;72.28;101131.78;5079787;28;20043;-79
2022/04/25 00:23:43;;;;;;;5.80;5.10;;;;;;;9.44;72.44;101127.47;5061599;28;20374;-79
2022/04/25 00:26:09;;;;;;;4.57;4.18;;;;;;;9.51;72.23;101131.59;5080399;28;20041;-79
2022/04/25 00:28:34;;;;;;;5.10;4.60;;;;;;;9.37;72.77;101124.22;5062800;28;20033;-79
2022/04/25 00:31:00;;;;;;;5.15;4.63;;;;;;;9.40;72.64;101131.94;5081247;28;20044;-79
2022/04/25 00:33:27;;;;;;;8.38;4.90;;;;;;;9.38;72.79;101138.97;5061618;28;20025;-79
2022/04/25 00:35:52;;;;;;;7.82;5.28;;;;;;;9.32;72.88;101133.94;5080279;28;20064;-79
2022/04/25 00:38:18;;;;;;;8.65;4.70;;;;;;;9.33;72.91;101131.28;5069480;28;20063;-79
2022/04/25 00:40:43;;;;;;;5.30;4.80;;;;;;;9.37;72.60;101132.06;5062302;28;20056;-79
2022/04/25 00:43:09;;;;;;;8.45;5.22;;;;;;;9.33;72.78;101136.53;5090803;28;20024;-79
2022/04/25 00:45:35;;;;;;;5.35;4.85;;;;;;;9.32;72.75;101132.19;5076235;28;20013;-79
2022/04/25 00:48:01;;;;;;;7.30;4.75;;;;;;;9.33;72.69;101133.91;5093270;28;20092;-79
2022/04/25 00:50:27;;;;;;;5.07;4.60;;;;;;;9.33;72.79;101122.56;5094489;28;20028;-79
2022/04/25 00:52:52;;;;;;;6.35;4.90;;;;;;;9.36;72.65;101133.78;5095209;28;20040;-79
2022/04/25 00:55:17;;;;;;;6.22;5.18;;;;;;;9.34;72.70;101132.16;5089952;28;20096;-79
2022/04/25 00:57:44;;;;;;;7.45;5.70;;;;;;;9.29;72.94;101132.28;5040528;28;20016;-79
2022/04/25 01:00:11;;;;;;;6.72;5.13;;;;;;;9.36;72.58;101127.72;5093812;28;20127;-79
2022/04/25 01:02:38;;;;;;;6.88;5.00;;;;;;;9.35;72.55;101126.88;5094604;28;20040;-79
2022/04/25 01:05:05;;;;;;;9.27;5.32;;;;;;;9.40;72.17;101129.31;5086391;28;20029;-79
2022/04/25 01:07:33;;;;;;;6.07;4.22;;;;;;;9.42;72.12;101130.13;5068201;28;20009;-79
2022/04/25 01:10:00;;;;;;;5.07;4.18;;;;;;;9.44;72.04;101128.34;5082023;28;20263;-79
2022/04/25 01:12:26;;;;;;;6.15;4.47;;;;;;;9.47;72.02;101125.63;5084088;28;20068;-79
2022/04/25 01:15:02;;;;;;;5.65;4.53;;;;;;;9.47;71.86;101122.16;5063455;28;20033;-79
2022/04/25 01:17:28;;;;;;;6.28;5.00;;;;;;;9.40;72.08;101116.25;5056169;28;20060;-79
2022/04/25 01:19:54;;;;;;;5.03;4.22;;;;;;;9.42;72.06;101127.50;5037488;28;20032;-79
2022/04/25 01:22:24;;;;;;;7.30;4.40;;;;;;;9.46;71.82;101123.03;5060888;28;20232;-79
2022/04/25 01:27:34;;;;;;;10.20;5.55;;;;;;;9.20;73.20;101120.38;5079068;28;20059;-79
2022/04/25 01:30:00;;;;;;;11.02;5.30;;;;;;;9.23;72.78;101122.00;5061796;28;20558;-79
2022/04/25 01:32:25;;;;;;;7.80;5.50;;;;;;;9.21;72.99;101122.06;5060875;28;20040;-79
2022/04/25 01:34:52;;;;;;;6.60;4.63;;;;;;;9.23;72.91;101119.41;5061354;28;20052;-79
2022/04/25 01:37:18;;;;;;;5.03;4.63;;;;;;;9.28;72.85;101122.72;5043275;28;20055;-79
2022/04/25 01:39:50;;;;;;;6.10;4.55;;;;;;;9.29;72.69;101115.75;5069677;28;20374;-79
2022/04/25 01:42:17;;;;;;;6.50;5.47;;;;;;;9.26;72.77;101115.81;5058597;28;20097;-79
2022/04/25 01:44:43;;;;;;;4.55;4.15;;;;;;;9.30;72.74;101117.47;5057280;28;20079;-79
2022/04/25 01:47:08;;;;;;;6.03;4.82;;;;;;;9.32;72.24;101116.50;5057521;28;20049;-79
2022/04/25 01:49:35;;;;;;;4.63;4.22;;;;;;;9.33;72.12;101105.16;5049351;28;20095;-79
2022/04/25 01:52:28;;;;;;;6.30;4.70;;;;;;;9.35;72.03;101113.81;5041060;28;20021;-79
2022/04/25 01:54:54;;;;;;;6.03;4.22;;;;;;;9.36;71.86;101110.28;5060117;28;20076;-78
2022/04/25 01:57:19;;;;;;;5.30;4.40;;;;;;;9.37;71.94;101114.59;5056235;28;20060;-79
2022/04/25 01:59:45;;;;;;;7.28;4.20;;;;;;;9.38;71.73;101108.47;5055380;28;20410;-79
2022/04/25 02:02:11;;;;;;;5.10;3.95;;;;;;;9.39;71.58;101115.41;5057017;28;20474;-79
2022/04/25 02:04:37;;;;;;;4.55;3.75;;;;;;;9.42;71.40;101117.06;5057889;28;20037;-79
2022/04/25 02:07:03;;;;;;;4.80;4.28;;;;;;;9.42;71.54;101111.81;5057093;28;20048;-79
2022/04/25 02:09:29;;;;;;;4.88;4.15;;;;;;;9.45;71.30;101113.50;5054480;28;20095;-79
2022/04/25 02:11:54;;;;;;;5.63;4.18;;;;;;;9.44;71.11;101115.28;5056405;28;20106;-79
2022/04/25 02:14:20;;;;;;;4.55;4.15;;;;;;;9.45;71.13;101113.50;5058018;28;20090;-79
2022/04/25 02:16:46;;;;;;;5.18;4.18;;;;;;;9.45;71.00;101109.13;5057846;28;20036;-79
2022/04/25 02:19:12;;;;;;;8.05;5.35;;;;;;;9.46;71.01;101115.19;5055050;28;20100;-79
2022/04/25 02:21:37;;;;;;;6.65;3.78;;;;;;;9.47;71.12;101106.47;5051420;28;20116;-79
2022/04/25 02:24:03;;;;;;;5.72;4.65;;;;;;;9.46;70.99;101105.63;5056730;28;20041;-79
2022/04/25 02:26:29;;;;;;;4.88;4.15;;;;;;;9.46;70.72;101110.84;5056340;28;20341;-79
2022/04/25 02:28:54;;;;;;;4.38;3.55;;;;;;;9.47;70.82;101109.09;5058113;28;20036;-79
2022/04/25 02:31:21;;;;;;;7.03;4.97;;;;;;;9.46;71.04;101107.38;5056512;28;20202;-79
2022/04/25 02:33:47;;;;;;;9.43;4.78;;;;;;;9.45;70.94;101111.75;5056471;28;20043;-79
2022/04/25 02:36:13;;;;;;;4.63;3.83;;;;;;;9.45;70.67;101098.66;5052226;28;20092;-79
2022/04/25 02:38:39;;;;;;;5.38;3.90;;;;;;;9.49;70.64;101099.44;5046695;28;20079;-79
2022/04/25 02:41:05;;;;;;;3.53;3.20;;;;;;;9.51;70.54;101102.84;5060992;28;20044;-79
2022/04/25 02:43:41;;;;;;;6.45;5.00;;;;;;;9.47;70.75;101101.25;5057329;28;20032;-79
2022/04/25 02:46:09;;;;;;;7.80;5.07;;;;;;;9.33;71.26;101102.53;5060095;28;20029;-79
2022/04/25 02:48:35;;;;;;;10.30;5.30;;;;;;;9.25;71.97;101104.53;5057575;28;20098;-79
2022/04/25 02:51:02;;;;;;;9.63;4.78;;;;;;;9.19;72.26;101102.13;5040085;28;20096;-78
2022/04/25 02:53:28;;;;;;;8.82;5.13;;;;;;;9.17;72.39;101101.31;5058221;28;20068;-78
2022/04/25 02:55:54;;;;;;;7.25;5.05;;;;;;;9.18;72.40;101100.38;5058233;28;20210;-78
2022/04/25 02:58:20;;;;;;;10.00;5.85;;;;;;;9.03;73.52;101102.56;5039298;28;20108;-78
2022/04/25 03:00:46;;;;;;;10.52;5.85;;;;;;;9.03;73.61;101097.34;5059770;28;20059;-78
2022/04/25 03:03:13;;;;;;;7.30;5.18;;;;;;;9.05;73.39;101093.84;5077725;28;20058;-78
2022/04/25 03:05:46;;;;;;;9.43;5.20;;;;;;;9.02;73.69;101097.38;5077738;28;20040;-78
2022/04/25 03:08:17;;;;;;;7.68;5.35;;;;;;;9.03;73.76;101099.09;5059953;28;20021;-78
2022/04/25 03:10:42;;;;;;;10.52;6.25;;;;;;;9.05;73.93;101096.44;5060232;28;20040;-78
2022/04/25 03:13:09;;;;;;;8.80;5.35;;;;;;;9.06;73.59;101096.41;5043081;28;20028;-78
2022/04/25 03:15:38;;;;;;;10.45;5.50;;;;;;;9.01;74.14;101099.13;5076883;28;20028;-78
2022/04/25 03:18:07;;;;;;;10.05;5.82;;;;;;;9.02;73.85;101100.88;5059295;28;20040;-78
2022/04/25 03:20:33;;;;;;;;;;;;;;;8.95;74.71;101099.34;5059340;28;20024;-78
2022/04/25 03:22:58;;;;;;;10.45;5.18;;;;;;;8.97;74.54;101097.53;5059667;28;19916;-78
2022/04/25 03:25:24;;;;;;;13.43;5.30;;;;;;;8.96;74.39;101098.41;5077141;28;20108;-78
2022/04/25 03:27:49;;;;;;;18.63;6.88;;;;;;;8.97;74.33;101094.91;5077243;28;20091;-78
2022/04/25 03:30:15;;;;;;;12.68;5.75;;;;;;;8.97;74.62;101091.47;5027004;28;20041;-78
2022/04/25 03:32:45;;;;;;;10.73;5.85;;;;;;;8.94;74.91;101092.38;5045092;28;20044;-78
2022/04/25 03:35:12;;;;;;;8.10;5.25;;;;;;;8.99;74.67;101095.72;5059277;28;20078;-78
2022/04/25 03:37:37;;;;;;;8.32;4.78;;;;;;;9.04;74.61;101098.22;5042462;28;20080;-79
2022/04/25 03:40:05;;;;;;;7.20;5.05;;;;;;;9.03;74.47;101099.09;5077016;28;20107;-78
2022/04/25 03:42:30;;;;;;;12.13;6.15;;;;;;;8.99;74.70;101100.94;5076393;28;20040;-78
2022/04/25 03:44:56;;;;;;;13.40;6.22;;;;;;;8.91;75.13;101097.69;5076101;28;20032;-78
2022/04/25 03:47:21;;;;;;;9.60;6.00;;;;;;;8.90;75.48;101103.00;5058487;28;20062;-78
2022/04/25 03:49:46;;;;;;;10.07;5.15;;;;;;;8.93;75.22;101098.53;5025695;28;20358;-78
2022/04/25 03:52:12;;;;;;;14.50;5.90;;;;;;;8.95;75.08;101101.06;5058835;28;20044;-78
2022/04/25 03:57:21;;;;;;;7.10;4.90;;;;;;;9.05;74.69;101106.91;5061198;28;20094;-78
2022/04/25 03:59:46;;;;;;;10.48;4.80;;;;;;;9.05;74.55;101110.34;5076584;28;20228;-78
2022/04/25 04:02:12;;;;;;;10.35;6.55;;;;;;;9.03;74.52;101102.56;5022156;28;20032;-78
2022/04/25 04:04:37;;;;;;;8.82;6.18;;;;;;;9.06;74.36;101092.91;5038112;28;20028;-78
2022/04/25 04:07:03;;;;;;;7.53;6.00;;;;;;;9.06;74.46;101092.91;5058807;28;20340;-78
2022/04/25 04:09:50;;;;;;;7.10;4.75;;;;;;;9.08;74.23;101093.72;5021915;28;20033;-78
2022/04/25 04:12:19;;;;;;;5.00;4.07;;;;;;;9.12;74.09;101096.22;5057559;28;20055;-78
2022/04/25 04:14:45;;;;;;;11.88;7.55;;;;;;;9.08;74.42;101093.72;5044210;28;20615;-78
2022/04/25 04:17:11;;;;;;;8.48;6.03;;;;;;;9.09;74.41;101100.66;5058591;28;20070;-78
2022/04/25 04:19:38;;;;;;;13.60;6.15;;;;;;;9.10;74.52;101099.78;5076059;28;20044;-78
2022/04/25 04:22:05;;;;;;;14.13;6.75;;;;;;;9.06;74.95;101101.63;5057110;28;20028;-78
2022/04/25 04:24:32;;;;;;;14.63;6.60;;;;;;;9.01;75.49;101104.38;5075799;28;20043;-78
2022/04/25 04:27:01;;;;;;;12.27;7.28;;;;;;;8.94;76.17;101108.06;5058312;28;20043;-78
2022/04/25 04:29:29;;;;;;;9.10;6.78;;;;;;;8.94;76.47;101109.81;5026236;28;20131;-78
2022/04/25 04:31:58;;;;;;;17.05;6.65;;;;;;;8.96;76.27;101111.47;5058639;28;20379;-78
2022/04/25 04:34:24;;;;;;;9.77;6.10;;;;;;;8.96;76.91;101113.25;5042118;28;20074;-78
2022/04/25 04:36:52;;;;;;;10.65;7.05;;;;;;;8.97;77.09;101109.75;5058495;28;20048;-78
2022/04/25 04:39:18;;;;;;;12.80;7.20;;;;;;;8.95;77.26;101119.34;5041935;28;20036;-78
2022/04/25 04:41:44;;;;;;;14.60;7.30;;;;;;;8.96;77.53;101118.47;5055992;28;20040;-78
2022/04/25 04:44:09;;;;;;;8.05;6.07;;;;;;;9.01;77.27;101117.44;5040310;28;20054;-78
2022/04/25 04:46:35;;;;;;;14.60;6.97;;;;;;;8.98;78.23;101120.13;5040145;28;20040;-78
2022/04/25 04:49:00;;;;;;;10.63;7.18;;;;;;;8.99;78.24;101121.00;5034703;28;20024;-78
2022/04/25 04:51:25;;;;;;;13.02;7.25;;;;;;;8.97;78.55;101123.66;5074735;28;20038;-78
2022/04/25 04:53:51;;;;;;;11.48;6.82;;;;;;;8.96;78.84;101126.31;5039515;28;20123;-78
2022/04/25 04:56:16;;;;;;;14.15;7.97;;;;;;;8.93;79.41;101137.72;5077208;28;20371;-79
2022/04/25 04:58:42;;;;;;;11.68;7.82;;;;;;;8.92;79.94;101135.16;5060568;28;20301;-78
2022/04/25 05:01:07;;;;;;;12.70;6.85;;;;;;;8.94;80.06;101147.25;5059702;28;20244;-79
2022/04/25 05:03:34;;;;;;;12.48;6.80;;;;;;;8.95;80.15;101143.75;5073285;28;20328;-78
2022/04/25 05:05:59;;;;;;;14.43;7.32;;;;;;;8.97;79.89;101141.09;5039559;28;20032;-78
2022/04/25 05:08:24;;;;;;;13.77;7.70;;;;;;;8.98;80.30;101142.78;5059798;28;20101;-78
2022/04/25 05:10:50;;;;;;;11.70;7.60;;;;;;;9.00;80.33;101140.97;5077666;28;20099;-78
2022/04/25 05:13:16;;;;;;;13.60;8.18;;;;;;;8.97;80.98;101147.16;5055813;28;20509;-78
2022/04/25 05:15:42;;;;;;;12.05;7.80;;;;;;;9.02;80.69;101149.63;5039986;28;20036;-78
2022/04/25 05:18:08;;;;;;;10.88;6.63;;;;;;;9.03;80.87;101152.19;5057281;28;20032;-78
2022/04/25 05:20:33;;;;;;;11.05;7.85;;;;;;;9.03;81.16;101157.44;5077610;28;20040;-79
2022/04/25 05:22:58;;;;;;;9.95;7.30;;;;;;;9.06;81.05;101155.63;5043085;28;20259;-78
2022/04/25 05:25:25;;;;;;;9.02;6.55;;;;;;;9.10;80.58;101155.50;5077997;28;20328;-78
2022/04/25 05:27:52;;;;;;;13.50;8.82;;;;;;;9.07;81.22;101160.81;5077241;28;20224;-78
2022/04/25 05:30:19;;;;;;;13.52;9.23;;;;;;;9.02;81.73;101163.56;5059590;28;20273;-78
2022/04/25 05:32:51;;;;;;;10.70;8.25;;;;;;;9.08;81.43;101166.88;5070342;28;20032;-79
2022/04/25 05:35:25;;;;;;;14.93;9.73;;;;;;;9.07;81.87;101168.63;5040217;28;20045;-79
2022/04/25 05:37:51;;;;;;;17.42;10.63;;;;;;;8.97;82.71;101165.44;5050443;28;20031;-79
2022/04/25 05:40:18;;;;;;;13.18;9.70;;;;;;;9.00;82.52;101169.72;5077337;28;20052;-79
2022/04/25 05:42:44;;;;;;;18.27;10.15;;;;;;;8.96;82.74;101168.94;5077660;28;20444;-79
2022/04/25 05:45:12;;;;;;;21.00;9.57;;;;;;;8.97;82.73;101178.50;5072319;28;20036;-78
2022/04/25 05:47:38;;;;;;;15.75;8.73;;;;;;;8.99;82.39;101183.69;5054489;28;20054;-79
2022/04/25 05:52:49;;;;;;;15.13;10.15;;;;;;;8.92;82.79;101190.84;5077519;28;20043;-79
2022/04/25 05:55:15;;;;;;;12.20;9.23;;;;;;;8.95;82.76;101193.38;5059734;28;20025;-79
2022/04/25 05:57:40;;;;;;;18.83;10.93;;;;;;;8.87;83.17;101195.34;5059192;28;20047;-79
2022/04/25 06:00:08;;;;;;;15.27;9.95;;;;;;;8.94;82.78;101196.03;5043469;28;20041;-78
2022/04/25 06:02:42;;;;;;;22.23;11.43;;;;;;;8.88;83.41;101197.06;5059371;28;20048;-78
2022/04/25 06:05:10;;;;;;;19.67;11.65;;;;;;;8.84;83.64;101195.41;5060193;28;20036;-78
2022/04/25 06:07:37;;;;;;;19.45;11.25;;;;;;;8.88;83.38;101193.56;5076549;28;20338;-79
2022/04/25 06:10:04;;;;;;;21.67;11.55;;;;;;;8.83;83.59;101198.94;5077626;28;20399;-78
2022/04/25 06:12:30;;;;;;;11.90;9.50;;;;;;;8.92;83.27;101197.84;5053904;28;20070;-79
2022/04/25 06:14:56;;;;;;;22.50;11.40;;;;;;;8.94;82.96;101196.88;5051134;28;20048;-79
2022/04/25 06:17:22;;;;;;;14.80;9.85;;;;;;;8.95;83.04;101203.81;5067716;28;20040;-79
2022/04/25 06:19:47;;;;;;;14.63;11.23;;;;;;;8.89;83.30;101208.34;5076678;28;20043;-79
2022/04/25 06:22:12;;;;;;;14.35;10.95;;;;;;;8.88;83.41;101204.91;5042044;28;20020;-79
2022/04/25 06:24:38;;;;;;;16.60;11.68;;;;;;;8.88;83.66;101212.72;5076794;28;20067;-79
2022/04/25 06:27:05;;;;;;;14.55;10.15;;;;;;;8.91;83.70;101217.84;5050483;28;20044;-79
2022/04/25 06:29:31;;;;;;;14.25;9.35;;;;;;;8.99;83.21;101215.03;5074798;28;20028;-79
2022/04/25 06:31:57;;;;;;;16.30;10.85;;;;;;;8.97;83.68;101214.25;5057691;28;20032;-78
2022/04/25 06:34:23;;;;;;;17.77;11.80;;;;;;;8.90;83.94;101218.75;5070505;28;20032;-79
2022/04/25 06:36:50;;;;;;;20.67;11.98;;;;;;;8.78;84.21;101219.94;5038952;28;20140;-79
2022/04/25 06:39:16;;;;;;;18.88;11.50;;;;;;;8.78;84.28;101219.94;5066306;28;20048;-79
2022/04/25 06:41:41;;;;;;;18.92;12.00;;;;;;;8.77;84.48;101217.41;5048008;28;20056;-79
2022/04/25 06:44:07;;;;;;;16.08;11.60;;;;;;;8.71;84.59;101223.63;5058469;28;20043;-79
2022/04/25 06:46:32;;;;;;;14.85;10.52;;;;;;;8.81;84.48;101224.25;5074042;28;20036;-78
2022/04/25 06:49:40;;;;;;;16.55;12.00;;;;;;;8.84;84.56;101227.63;5072768;28;20364;-79
2022/04/25 06:51:47;;;;;;;18.60;11.30;;;;;;;8.80;84.68;101225.13;5043207;28;20044;-78
2022/04/25 06:54:14;;;;;;;23.23;11.60;;;;;;;8.77;84.76;101227.84;5057941;28;20107;-78
2022/04/25 06:56:40;;;;;;;14.02;11.07;;;;;;;8.75;85.06;101232.22;5073530;28;20359;-78
2022/04/25 06:59:05;;;;;;;15.50;11.55;;;;;;;8.68;84.70;101230.66;5074316;28;20086;-79
2022/04/25 07:01:32;;;;;;;17.15;11.55;;;;;;;8.66;85.29;101238.56;5051265;28;20083;-78
2022/04/25 07:03:58;;;;;;;14.57;11.00;;;;;;;8.65;85.36;101236.84;5067526;28;20209;-78
2022/04/25 07:06:23;;;;;;;16.05;11.30;;;;;;;8.66;85.32;101238.56;5049899;28;21364;-78
2022/04/25 07:08:48;;;;;;;16.25;11.82;;;;;;;8.68;85.24;101241.13;5053284;28;20387;-78
2022/04/25 07:11:14;;;;;;;16.23;11.10;;;;;;;8.62;85.78;101243.03;5069069;28;20041;-78
2022/04/25 07:13:42;;;;;;;18.35;12.88;;;;;;;8.64;86.06;101238.59;5053247;28;20103;-78
2022/04/25 07:16:12;;;;;;;18.30;11.90;;;;;;;8.71;86.25;101238.44;5067153;28;20063;-78
2022/04/25 07:18:38;;;;;;;15.48;11.25;;;;;;;8.69;85.83;101248.06;5053410;28;20318;-78
2022/04/25 07:29:17;;;;;;;13.00;10.20;;;;;;;8.33;86.60;101258.50;5045111;28;20106;-78
2022/04/25 07:31:43;;;;;;;14.27;10.52;;;;;;;8.33;87.05;101255.91;5054307;28;20090;-78
2022/04/25 07:34:09;;;;;;;13.55;10.95;;;;;;;8.36;87.20;101259.28;5032227;28;20032;-78
2022/04/25 07:36:36;;;;;;;15.30;10.88;;;;;;;8.29;87.67;101262.09;5035881;28;20033;-78
2022/04/25 07:39:05;;;;;;;16.35;11.45;;;;;;;8.31;88.22;101263.75;5054042;28;20248;-78
2022/04/25 07:41:30;;;;;;;;;;;;;;;8.33;88.27;101262.00;5063269;28;20112;-78
2022/04/25 07:43:56;;;;;;;17.60;11.35;;;;;;;8.35;88.61;101262.81;5045108;28;19958;-78
2022/04/25 07:46:25;;;;;;;20.40;12.88;;;;;;;8.36;88.74;101258.44;5071180;28;20339;-79
2022/04/25 07:48:53;;;;;;;19.65;13.05;;;;;;;8.33;88.85;101262.00;5049722;28;20064;-79
2022/04/25 07:51:19;;;;;;;15.82;13.23;;;;;;;8.36;89.16;101261.06;5028582;28;20232;-79
2022/04/25 07:53:44;;;;;;;18.55;13.10;;;;;;;8.30;89.41;101256.00;5061283;28;20028;-79
2022/04/25 07:56:10;;;;;;;23.85;13.70;;;;;;;8.33;89.47;101261.13;5071741;28;20269;-79
2022/04/25 07:58:36;;;;;;;27.08;13.70;;;;;;;8.34;89.30;101262.84;5069388;28;20242;-78
2022/04/25 08:01:03;;;;;;;22.60;14.45;;;;;;;8.33;89.37;101266.34;5068148;28;20260;-78
2022/04/25 08:03:29;;;;;;;20.20;13.20;;;;;;;8.36;89.00;101268.88;5054673;28;20063;-78
2022/04/25 08:05:54;;;;;;;19.02;13.20;;;;;;;8.38;89.15;101270.53;5056518;28;20356;-79
2022/04/25 08:08:20;;;;;;;19.98;13.65;;;;;;;8.43;89.20;101278.31;5053858;28;20139;-79
2022/04/25 08:10:45;;;;;;;21.40;14.35;;;;;;;8.38;89.33;101282.75;5068404;28;20072;-78
2022/04/25 08:18:38;;;;;;;22.17;13.55;;;;;;;8.45;88.99;101294.78;5056966;28;20086;-78
2022/04/25 08:21:04;;;;;;;17.33;12.00;;;;;;;8.37;88.74;101288.88;5056411;28;20336;-78
2022/04/25 08:23:29;;;;;;;22.65;13.32;;;;;;;8.32;88.78;101293.34;5074893;28;20205;-79
2022/04/25 08:25:55;;;;;;;19.60;13.35;;;;;;;8.41;88.72;101296.56;5053590;28;20068;-79
2022/04/25 08:28:20;;;;;;;18.05;13.43;;;;;;;8.42;88.72;101302.69;5053927;28;20358;-78
2022/04/25 08:30:46;;;;;;;22.17;13.38;;;;;;;8.38;88.78;101296.63;5057014;28;20055;-79
2022/04/25 08:33:12;;;;;;;18.90;12.88;;;;;;;8.41;88.45;101299.19;5080069;28;20133;-78
2022/04/25 08:35:38;;;;;;;20.55;13.45;;;;;;;8.39;88.42;101300.97;5071572;28;20048;-78
2022/04/25 08:38:04;;;;;;;17.58;13.15;;;;;;;8.35;87.67;101309.78;5042075;28;20060;-78
2022/04/25 08:40:30;;;;;;;18.17;13.20;;;;;;;8.33;88.16;101308.09;5073760;28;20037;-78
2022/04/25 08:42:57;;;;;;;24.92;13.45;;;;;;;8.28;88.32;101313.44;5059858;28;20311;-78
2022/04/25 08:45:23;;;;;;;17.73;12.65;;;;;;;8.24;87.80;101315.25;5078087;28;20432;-78
2022/04/25 08:47:57;;;;;;;18.75;12.73;;;;;;;8.34;88.17;101321.09;5048706;28;20428;-78
2022/04/25 08:50:23;;;;;;;19.60;12.50;;;;;;;8.33;88.21;101314.19;5066578;28;20028;-79
2022/04/25 08:52:48;;;;;;;20.50;13.75;;;;;;;8.36;88.28;101321.06;5051993;28;20218;-78
2022/04/25 08:55:16;;;;;;;18.38;13.25;;;;;;;8.42;88.07;101324.44;5076645;28;20201;-78
2022/04/25 08:57:43;;;;;;;21.77;12.90;;;;;;;8.46;88.02;101325.22;5052856;28;20056;-78
2022/04/25 09:00:09;;;;;;;25.30;14.25;;;;;;;8.44;87.78;101322.66;5071114;28;20097;-78
2022/04/25 09:02:39;;;;;;;17.80;13.25;;;;;;;8.47;87.78;101318.25;5057324;28;20070;-78
2022/04/25 09:05:13;;;;;;;22.73;13.23;;;;;;;8.49;87.72;101319.91;5059895;28;20378;-78
2022/04/25 09:07:40;;;;;;;15.32;11.90;;;;;;;8.59;87.61;101316.19;5057098;28;20112;-78
2022/04/25 09:10:10;;;;;;;20.95;12.10;;;;;;;8.67;87.54;101323.81;5063443;28;20039;-78
2022/04/25 09:12:37;;;;;;;21.83;13.90;;;;;;;8.73;87.29;101330.66;5058163;28;20174;-78
2022/04/25 09:15:04;;;;;;;21.55;13.52;;;;;;;8.79;87.31;101327.91;5060725;28;20634;-79
2022/04/25 09:17:30;;;;;;;17.80;12.38;;;;;;;8.84;87.37;101332.09;5071531;28;20061;-78
2022/04/25 09:19:55;;;;;;;20.13;12.90;;;;;;;8.82;88.25;101331.28;5077457;28;20146;-78
2022/04/25 09:22:32;;;;;;;21.33;13.73;;;;;;;8.91;88.23;101332.78;5068385;28;20368;-78
2022/04/25 09:25:11;;;;;;;20.77;13.68;;;;;;;8.97;88.02;101340.47;5059400;28;20039;-79
2022/04/25 09:27:37;;;;;;;19.35;12.55;;;;;;;8.81;87.10;101337.41;5052938;28;20340;-79
2022/04/25 09:30:24;;;;;;;19.70;13.38;;;;;;;8.75;87.09;101332.34;5050185;28;20295;-78
2022/04/25 09:32:51;;;;;;;24.90;13.35;;;;;;;8.78;87.54;101344.44;5057124;28;20321;-78
2022/04/25 09:35:30;;;;;;;20.80;12.82;;;;;;;8.69;87.66;101348.13;5043599;28;20166;-78
2022/04/25 09:38:00;;;;;;;22.50;13.73;;;;;;;8.69;87.38;101342.91;5077252;28;20055;-79
2022/04/25 09:40:31;;;;;;;17.38;11.90;;;;;;;8.72;87.67;101339.38;5050457;28;20236;-78
2022/04/25 09:43:14;;;;;;;19.92;13.50;;;;;;;8.72;87.80;101339.38;5059183;28;20044;-79
2022/04/25 09:45:42;;;;;;;21.95;13.98;;;;;;;8.73;88.07;101346.31;5069755;28;20431;-78
2022/04/25 09:48:18;;;;;;;18.30;12.80;;;;;;;8.77;88.12;101353.19;5074497;28;20048;-78
2022/04/25 09:50:59;;;;;;;21.38;14.25;;;;;;;8.77;88.13;101353.19;5076893;28;20028;-78
2022/04/25 09:53:40;;;;;;;19.55;13.55;;;;;;;8.74;87.80;101361.09;5057977;28;20028;-79
2022/04/25 09:56:12;;;;;;;18.02;13.90;;;;;;;8.71;88.35;101361.16;5038680;28;20093;-79
2022/04/25 09:58:40;;;;;;;24.10;13.55;;;;;;;8.80;88.00;101371.38;5058105;28;20036;-78
2022/04/25 10:01:13;;;;;;;18.38;14.13;;;;;;;8.84;88.34;101371.28;5071474;28;20214;-78
2022/04/25 10:03:40;;;;;;;17.25;13.23;;;;;;;8.84;87.70;101378.22;5071466;28;20047;-78
2022/04/25 10:06:05;;;;;;;18.20;12.77;;;;;;;8.80;87.81;101372.25;5059912;28;20044;-78
2022/04/25 10:08:34;;;;;;;16.98;12.55;;;;;;;8.84;87.71;101378.22;5040788;28;20358;-79
2022/04/25 10:11:07;;;;;;;18.67;13.32;;;;;;;8.75;87.71;101378.47;5069874;28;20366;-78
2022/04/25 10:13:34;;;;;;;20.77;14.23;;;;;;;8.76;87.44;101374.97;5075290;28;20040;-78
2022/04/25 10:16:00;;;;;;;19.85;13.65;;;;;;;8.69;87.68;101378.63;5059256;28;20074;-79
2022/04/25 10:18:28;;;;;;;17.95;13.30;;;;;;;8.73;87.82;101373.31;5059291;28;20344;-79
2022/04/25 10:20:53;;;;;;;17.08;13.63;;;;;;;8.77;87.93;101374.94;5057210;28;20045;-78
2022/04/25 10:23:19;;;;;;;17.10;13.15;;;;;;;8.81;87.71;101383.56;5074821;28;20064;-78
2022/04/25 10:25:54;;;;;;;17.75;12.73;;;;;;;8.80;88.18;101379.22;5059686;28;20322;-78
2022/04/25 10:28:27;;;;;;;21.30;15.13;;;;;;;8.83;88.42;101379.16;5073011;28;20112;-78
2022/04/25 10:30:59;;;;;;;21.90;14.60;;;;;;;8.85;88.01;101379.97;5076999;28;20104;-78
2022/04/25 10:33:24;;;;;;;18.55;13.07;;;;;;;8.86;87.92;101381.69;5053748;28;20032;-78
2022/04/25 10:35:51;;;;;;;21.23;13.57;;;;;;;8.89;87.83;101384.22;5058787;28;20100;-78
2022/04/25 10:38:48;;;;;;;19.15;13.45;;;;;;;8.90;87.55;101387.69;5036530;28;20481;-78
2022/04/25 10:44:16;;;;;;;21.92;14.15;;;;;;;9.01;87.65;101394.34;5063970;28;20040;-78
2022/04/25 10:47:05;;;;;;;18.40;13.88;;;;;;;9.10;87.45;101397.66;5077211;28;20036;-78
2022/04/25 10:49:40;;;;;;;20.98;13.27;;;;;;;9.14;86.96;101394.06;5047154;28;20040;-78
2022/04/25 10:52:37;;;;;;;23.17;13.85;;;;;;;9.14;86.95;101401.88;5058515;28;20342;-78
2022/04/25 10:55:33;;;;;;;18.42;12.27;;;;;;;9.06;85.92;101403.81;5071797;28;20020;-78
2022/04/25 10:58:02;;;;;;;18.83;12.95;;;;;;;9.00;85.55;101410.94;5058454;28;20043;-78
2022/04/25 11:00:36;;;;;;;18.70;13.27;;;;;;;9.00;85.50;101410.06;5063694;28;20381;-78
2022/04/25 11:03:17;;;;;;;19.65;13.80;;;;;;;9.03;86.08;101405.63;5057788;28;20036;-78
2022/04/25 11:05:43;;;;;;;18.33;12.30;;;;;;;9.05;85.92;101415.19;5055617;28;20328;-78
2022/04/25 11:08:23;;;;;;;14.57;11.70;;;;;;;8.93;85.30;101414.59;5074106;28;20114;-78
2022/04/25 11:10:49;;;;;;;19.95;12.27;;;;;;;8.93;85.23;101418.94;5068656;28;20032;-78
2022/04/25 11:13:18;;;;;;;19.73;12.25;;;;;;;8.90;85.46;101414.66;5074308;28;20121;-79
2022/04/25 11:15:52;;;;;;;17.70;12.80;;;;;;;8.90;85.46;101426.88;5057547;28;20194;-78
2022/04/25 11:18:37;;;;;;;16.55;12.10;;;;;;;8.87;85.58;101425.19;5055581;28;20059;-78
2022/04/25 11:21:13;;;;;;;19.80;12.85;;;;;;;8.87;85.58;101426.94;5064154;28;20048;-78
2022/04/25 11:23:44;;;;;;;18.58;12.35;;;;;;;8.90;86.09;101429.50;5074795;28;20036;-78
2022/04/25 11:26:33;;;;;;;14.82;12.48;;;;;;;8.88;85.81;101429.53;5076753;28;20058;-78
2022/04/25 11:29:08;;;;;;;20.65;13.07;;;;;;;8.93;85.73;101430.28;5058506;28;20217;-78
2022/04/25 11:31:34;;;;;;;18.42;12.63;;;;;;;8.99;85.39;101437.94;5067176;28;20050;-79
2022/04/25 11:34:05;;;;;;;16.98;12.45;;;;;;;9.02;85.87;101443.13;5048431;28;20028;-78
2022/04/25 11:36:36;;;;;;;20.00;13.18;;;;;;;8.99;85.08;101435.34;5071682;28;20036;-78
2022/04/25 11:41:46;;;;;;;18.30;12.95;;;;;;;9.02;85.77;101439.63;5075005;28;20075;-78
2022/04/25 11:44:12;;;;;;;21.15;13.25;;;;;;;9.05;85.82;101436.94;5068487;28;20316;-78
2022/04/25 11:46:38;;;;;;;19.75;12.75;;;;;;;9.05;85.80;101439.56;5072163;28;20236;-78
2022/04/25 11:49:06;;;;;;;24.40;13.25;;;;;;;9.10;85.71;101437.69;5069393;28;20036;-78
2022/04/25 11:51:37;;;;;;;16.90;13.50;;;;;;;9.10;85.56;101432.47;5074070;28;20534;-78
2022/04/25 11:54:10;;;;;;;18.92;12.73;;;;;;;9.16;85.73;101432.31;5030439;28;20102;-78
2022/04/25 11:56:41;;;;;;;20.27;14.15;;;;;;;9.20;86.33;101438.31;5058956;28;20313;-78